Time;durP1;ratioP1;P1;durP2;ratioP2;P2;SDS_P1;SDS_P2;PMS_P1;PMS_P2;Temp;Humidity;BMP_temperature;BMP_pressure;BME280_temperature;BME280_humidity;BME280_pressure;Samples;Min_cycle;Max_cycle;Signal;HPM_P1;HPM_P2
2023/07/15 00:00:53;;;;;;;3.70;2.85;;;21.20;77.30;;;;;;4956538;28;20037;-83
2023/07/15 00:03:19;;;;;;;3.25;2.72;;;21.20;77.20;;;;;;4974244;28;20023;-83
2023/07/15 00:05:46;;;;;;;5.15;3.00;;;21.20;77.40;;;;;;4972612;28;20090;-83
2023/07/15 00:08:12;;;;;;;3.88;2.95;;;21.20;77.40;;;;;;4972717;28;21000;-83
2023/07/15 00:10:41;;;;;;;3.30;3.00;;;21.20;77.40;;;;;;4972461;28;20538;-83
2023/07/15 00:13:12;;;;;;;3.38;3.05;;;21.10;77.40;;;;;;4972433;28;20037;-83
2023/07/15 00:15:37;;;;;;;;;;;21.20;77.60;;;;;;4972860;28;20034;-83
2023/07/15 00:18:03;;;;;;;3.92;2.55;;;21.10;77.50;;;;;;4972683;28;19910;-82
2023/07/15 00:20:29;;;;;;;3.47;2.85;;;21.10;77.70;;;;;;4973747;28;20102;-83
2023/07/15 00:22:54;;;;;;;4.32;2.92;;;21.00;77.80;;;;;;4973686;28;20038;-83
2023/07/15 00:25:20;;;;;;;3.30;2.90;;;21.00;77.90;;;;;;4972245;28;20376;-83
2023/07/15 00:27:47;;;;;;;2.80;2.60;;;21.00;77.90;;;;;;4972392;28;20031;-84
2023/07/15 00:30:15;;;;;;;3.35;3.03;;;21.00;78.00;;;;;;4973459;28;20058;-83
2023/07/15 00:32:50;;;;;;;3.03;2.80;;;21.00;78.00;;;;;;4972090;28;20027;-83
2023/07/15 00:35:29;;;;;;;3.17;2.88;;;21.00;77.90;;;;;;4972008;28;20118;-83
2023/07/15 00:37:59;;;;;;;2.95;2.75;;;21.00;78.00;;;;;;4972250;28;20029;-83
2023/07/15 00:40:32;;;;;;;3.08;2.83;;;21.00;78.00;;;;;;4955890;28;20054;-83
2023/07/15 00:43:35;;;;;;;3.53;2.95;;;21.00;78.00;;;;;;4972136;28;20026;-83
2023/07/15 00:46:44;;;;;;;2.85;2.58;;;21.00;78.00;;;;;;4955880;28;20043;-83
2023/07/15 00:49:21;;;;;;;3.25;2.95;;;20.90;78.00;;;;;;4956946;28;20039;-83
2023/07/15 00:52:05;;;;;;;3.33;3.03;;;20.90;78.10;;;;;;4971991;28;20037;-83
2023/07/15 00:54:34;;;;;;;3.22;2.95;;;20.90;78.10;;;;;;4972993;28;20085;-83
2023/07/15 00:57:01;;;;;;;3.20;2.90;;;20.90;78.20;;;;;;4972197;28;20110;-83
2023/07/15 00:59:28;;;;;;;3.17;2.80;;;20.90;78.10;;;;;;4971597;28;20398;-83
2023/07/15 01:01:54;;;;;;;2.90;2.70;;;20.80;78.20;;;;;;4972923;28;20475;-83
2023/07/15 01:04:22;;;;;;;2.85;2.58;;;20.80;78.10;;;;;;4971944;28;20605;-83
2023/07/15 01:06:48;;;;;;;3.20;2.90;;;20.80;78.20;;;;;;4973058;28;20042;-83
2023/07/15 01:09:13;;;;;;;3.15;2.85;;;20.80;78.20;;;;;;4971578;28;20031;-83
2023/07/15 01:11:40;;;;;;;5.53;2.72;;;20.80;78.20;;;;;;4972958;28;20526;-83
2023/07/15 01:14:09;;;;;;;3.13;2.80;;;20.70;78.20;;;;;;4971336;28;20085;-83
2023/07/15 01:16:35;;;;;;;3.30;2.97;;;20.70;78.20;;;;;;4972646;28;20105;-82
2023/07/15 01:19:02;;;;;;;4.55;3.00;;;20.70;78.30;;;;;;4971634;28;20027;-83
2023/07/15 01:21:32;;;;;;;2.90;2.70;;;20.60;78.20;;;;;;4972424;28;20029;-83
2023/07/15 01:23:58;;;;;;;4.32;3.00;;;20.60;78.10;;;;;;4992545;28;20537;-83
2023/07/15 01:26:24;;;;;;;3.70;2.60;;;20.60;78.20;;;;;;4991999;28;20034;-83
2023/07/15 01:28:49;;;;;;;3.28;2.65;;;20.60;78.10;;;;;;4990705;28;20034;-83
2023/07/15 01:31:19;;;;;;;3.88;2.90;;;20.60;78.20;;;;;;4991887;28;20057;-82
2023/07/15 01:33:45;;;;;;;2.97;2.67;;;20.60;78.00;;;;;;4990530;28;20114;-83
2023/07/15 01:36:10;;;;;;;3.13;2.80;;;20.50;78.00;;;;;;4992166;28;20030;-83
2023/07/15 01:38:37;;;;;;;3.50;2.80;;;20.50;78.10;;;;;;4974433;28;20053;-83
2023/07/15 01:41:03;;;;;;;2.78;2.58;;;20.50;78.00;;;;;;4990805;28;20624;-83
2023/07/15 01:43:29;;;;;;;3.15;2.78;;;20.50;78.00;;;;;;4990897;28;20034;-83
2023/07/15 01:45:55;;;;;;;2.95;2.63;;;20.50;77.90;;;;;;4974513;28;20030;-83
2023/07/15 01:48:20;;;;;;;3.15;2.88;;;20.50;78.00;;;;;;4990500;28;20034;-83
2023/07/15 01:50:47;;;;;;;3.30;3.00;;;20.50;77.90;;;;;;4990991;28;20023;-83
2023/07/15 01:53:14;;;;;;;2.97;2.67;;;20.50;77.90;;;;;;4990298;28;20030;-83
2023/07/15 01:55:40;;;;;;;3.28;2.97;;;20.50;77.80;;;;;;4990565;28;20033;-83
2023/07/15 01:58:06;;;;;;;3.03;2.72;;;20.50;77.80;;;;;;4990466;28;20026;-83
2023/07/15 02:00:31;;;;;;;4.53;2.80;;;20.50;77.80;;;;;;4991647;28;20022;-83
2023/07/15 02:02:57;;;;;;;3.17;2.88;;;20.50;77.80;;;;;;4990407;28;20027;-83
2023/07/15 02:05:23;;;;;;;3.70;3.00;;;20.50;77.80;;;;;;4991631;28;20027;-83
2023/07/15 02:07:48;;;;;;;2.95;2.67;;;20.50;77.90;;;;;;4993223;28;20545;-82
2023/07/15 02:10:14;;;;;;;3.33;3.00;;;20.50;77.90;;;;;;4994351;28;20030;-83
2023/07/15 02:12:40;;;;;;;2.90;2.65;;;20.40;77.80;;;;;;4995356;28;20045;-83
2023/07/15 02:15:06;;;;;;;2.63;2.42;;;20.50;77.80;;;;;;4995416;28;20022;-82
2023/07/15 02:17:32;;;;;;;2.35;2.22;;;20.40;77.70;;;;;;4978032;28;20029;-83
2023/07/15 02:19:59;;;;;;;2.97;2.78;;;20.40;77.70;;;;;;4994031;28;20038;-83
2023/07/15 02:22:25;;;;;;;3.33;2.88;;;20.40;77.70;;;;;;4994229;28;20023;-83
2023/07/15 02:24:51;;;;;;;2.90;2.63;;;20.50;77.70;;;;;;4994012;28;20084;-82
2023/07/15 02:27:16;;;;;;;3.63;2.95;;;20.40;77.60;;;;;;4995219;28;20105;-83
2023/07/15 02:29:43;;;;;;;2.88;2.58;;;20.50;77.60;;;;;;4977618;28;20510;-83
2023/07/15 02:32:08;;;;;;;3.28;2.60;;;20.40;78.20;;;;;;4995052;28;20026;-83
2023/07/15 02:34:34;;;;;;;3.15;2.80;;;20.50;77.50;;;;;;4993758;28;20367;-83
2023/07/15 02:37:01;;;;;;;4.93;2.90;;;20.50;77.40;;;;;;4977525;28;20018;-83
2023/07/15 02:39:27;;;;;;;3.78;2.72;;;20.50;77.50;;;;;;4977516;28;20445;-83
2023/07/15 02:41:52;;;;;;;3.05;2.70;;;20.50;77.30;;;;;;4993562;28;20034;-83
2023/07/15 02:44:18;;;;;;;2.60;2.40;;;20.50;77.20;;;;;;4993835;28;20121;-83
2023/07/15 02:46:43;;;;;;;3.00;2.70;;;20.50;77.20;;;;;;4993635;28;20026;-83
2023/07/15 02:49:09;;;;;;;3.10;2.80;;;20.50;77.20;;;;;;4993535;28;20504;-83
2023/07/15 02:51:35;;;;;;;3.00;2.70;;;20.50;77.10;;;;;;4994632;28;20030;-83
2023/07/15 02:54:01;;;;;;;2.95;2.70;;;20.60;76.90;;;;;;4993200;28;20077;-83
2023/07/15 02:56:27;;;;;;;2.97;2.47;;;20.60;76.80;;;;;;4993322;28;20397;-82
2023/07/15 02:58:54;;;;;;;2.60;2.40;;;20.70;76.80;;;;;;4994590;28;20023;-83
2023/07/15 03:01:20;;;;;;;3.10;2.80;;;20.70;76.60;;;;;;4993304;28;20092;-82
2023/07/15 03:03:46;;;;;;;2.85;2.60;;;20.70;76.50;;;;;;4994561;28;20069;-82
2023/07/15 03:06:12;;;;;;;3.70;2.63;;;20.70;76.40;;;;;;4994296;28;20082;-83
2023/07/15 03:08:38;;;;;;;3.13;2.78;;;20.80;76.40;;;;;;4993154;28;20544;-83
2023/07/15 03:11:08;;;;;;;2.95;2.65;;;20.80;76.50;;;;;;4994583;28;20031;-83
2023/07/15 03:13:34;;;;;;;3.03;2.70;;;20.80;76.20;;;;;;4994509;28;20030;-83
2023/07/15 03:16:00;;;;;;;2.95;2.70;;;20.80;76.30;;;;;;4992999;28;20023;-83
2023/07/15 03:18:26;;;;;;;2.88;2.67;;;20.90;76.10;;;;;;4976155;28;20501;-83
2023/07/15 03:20:52;;;;;;;2.90;2.70;;;20.90;76.00;;;;;;4975077;28;20127;-83
2023/07/15 03:23:18;;;;;;;3.03;2.70;;;21.00;75.80;;;;;;4991706;28;20454;-83
2023/07/15 03:25:44;;;;;;;3.03;2.70;;;21.00;76.40;;;;;;4990463;28;20109;-83
2023/07/15 03:28:11;;;;;;;4.55;2.53;;;21.10;75.60;;;;;;4992338;28;20038;-83
2023/07/15 03:30:37;;;;;;;3.15;2.70;;;21.10;75.40;;;;;;4991639;28;20066;-83
2023/07/15 03:33:04;;;;;;;3.30;3.00;;;21.20;75.90;;;;;;4990765;28;20034;-83
2023/07/15 03:35:30;;;;;;;2.97;2.78;;;21.30;76.10;;;;;;4992562;28;20105;-82
2023/07/15 03:37:56;;;;;;;2.83;2.55;;;21.50;76.10;;;;;;4992313;28;20117;-83
2023/07/15 03:40:21;;;;;;;3.00;2.70;;;21.60;75.90;;;;;;4992471;28;20033;-83
2023/07/15 03:42:47;;;;;;;2.80;2.60;;;21.80;75.70;;;;;;4990197;28;20033;-83
2023/07/15 03:45:13;;;;;;;3.03;2.72;;;22.00;75.60;;;;;;4989363;28;20430;-83
2023/07/15 03:47:39;;;;;;;2.97;2.58;;;22.30;75.50;;;;;;4988992;28;20045;-83
2023/07/15 03:50:06;;;;;;;2.63;2.42;;;22.70;75.30;;;;;;4990338;28;20462;-83
2023/07/15 03:52:32;;;;;;;3.97;2.50;;;23.20;74.50;;;;;;4972763;28;20049;-83
2023/07/15 03:54:59;;;;;;;5.43;2.35;;;23.70;73.60;;;;;;4991098;28;20038;-83
2023/07/15 03:57:25;;;;;;;2.53;2.30;;;24.30;72.50;;;;;;4990565;28;20490;-82
2023/07/15 03:59:50;;;;;;;4.22;2.55;;;25.00;71.10;;;;;;4992454;28;20360;-83
2023/07/15 04:02:17;;;;;;;2.40;2.20;;;25.70;69.80;;;;;;4992288;28;20041;-83
2023/07/15 04:04:43;;;;;;;2.40;2.20;;;26.30;68.30;;;;;;4993396;28;20026;-84
2023/07/15 04:07:09;;;;;;;2.58;2.38;;;26.90;66.90;;;;;;4992107;28;20139;-83
2023/07/15 04:09:36;;;;;;;2.40;2.20;;;27.50;65.70;;;;;;4992185;28;20486;-83
2023/07/15 04:12:02;;;;;;;2.13;1.92;;;28.00;64.60;;;;;;4991864;28;20394;-84
2023/07/15 04:14:27;;;;;;;2.63;2.25;;;28.50;63.80;;;;;;4991848;28;20516;-84
2023/07/15 04:16:53;;;;;;;2.60;2.40;;;29.00;63.10;;;;;;4975766;28;20121;-84
2023/07/15 04:19:19;;;;;;;2.60;2.40;;;29.40;62.20;;;;;;4993160;28;20076;-84
2023/07/15 04:21:44;;;;;;;2.40;2.20;;;29.80;61.10;;;;;;4991721;28;20557;-84
2023/07/15 04:24:10;;;;;;;2.20;2.10;;;30.20;60.20;;;;;;4993032;28;20042;-83
2023/07/15 04:26:36;;;;;;;2.38;2.17;;;30.50;59.50;;;;;;4991761;28;20513;-84
2023/07/15 04:29:02;;;;;;;2.70;2.30;;;30.80;58.90;;;;;;4991592;28;20148;-84
2023/07/15 04:31:27;;;;;;;5.05;2.45;;;31.00;58.60;;;;;;4991597;28;20022;-84
2023/07/15 04:33:53;;;;;;;2.10;1.90;;;31.30;58.00;;;;;;4975384;28;20117;-84
2023/07/15 04:36:21;;;;;;;2.30;2.10;;;31.50;57.70;;;;;;4991539;28;20026;-84
2023/07/15 04:38:47;;;;;;;2.20;2.00;;;31.60;57.40;;;;;;4991860;28;20058;-84
2023/07/15 04:41:13;;;;;;;2.80;2.50;;;31.80;57.20;;;;;;4991133;28;20103;-84
2023/07/15 04:43:39;;;;;;;2.08;1.98;;;32.00;56.80;;;;;;4989764;28;20089;-84
2023/07/15 04:46:05;;;;;;;3.05;2.58;;;32.10;56.40;;;;;;4991347;28;20478;-84
2023/07/15 04:48:31;;;;;;;2.33;2.10;;;32.30;56.20;;;;;;4973547;28;20022;-84
2023/07/15 04:50:57;;;;;;;2.72;2.28;;;32.40;56.30;;;;;;4991382;28;20035;-85
2023/07/15 04:53:23;;;;;;;3.72;2.13;;;32.60;55.40;;;;;;4992177;28;20033;-84
2023/07/15 04:55:49;;;;;;;2.38;2.17;;;32.70;55.30;;;;;;4991492;28;20027;-84
2023/07/15 04:58:17;;;;;;;2.70;2.50;;;32.70;55.10;;;;;;4990274;28;20096;-84
2023/07/15 05:00:48;;;;;;;2.30;2.13;;;32.80;54.80;;;;;;4989550;28;20520;-84
2023/07/15 05:03:14;;;;;;;2.85;2.65;;;32.90;54.70;;;;;;4973713;28;20437;-84
2023/07/15 05:05:40;;;;;;;2.30;2.10;;;33.10;55.30;;;;;;4989881;28;20038;-84
2023/07/15 05:08:18;;;;;;;2.53;2.00;;;33.10;54.30;;;;;;4991816;28;20022;-84
2023/07/15 05:10:44;;;;;;;2.20;2.00;;;33.20;54.30;;;;;;4990662;28;20023;-84
2023/07/15 05:13:10;;;;;;;2.47;2.25;;;33.30;54.20;;;;;;4990798;28;20089;-84
2023/07/15 05:15:36;;;;;;;2.80;2.35;;;33.40;54.10;;;;;;4992304;28;20030;-84
2023/07/15 05:18:03;;;;;;;2.50;2.30;;;33.40;53.80;;;;;;4992156;28;20085;-84
2023/07/15 05:20:28;;;;;;;2.20;2.10;;;33.50;53.70;;;;;;4992271;28;20542;-84
2023/07/15 05:22:54;;;;;;;2.03;1.83;;;33.50;53.40;;;;;;4974725;28;20137;-84
2023/07/15 05:25:20;;;;;;;2.83;2.20;;;33.50;53.10;;;;;;4992163;28;20066;-84
2023/07/15 05:27:46;;;;;;;2.85;2.58;;;33.40;52.60;;;;;;4992307;28;20026;-84
2023/07/15 05:30:12;;;;;;;2.90;2.40;;;33.30;52.20;;;;;;4992029;28;20046;-84
2023/07/15 05:32:38;;;;;;;2.70;2.40;;;33.00;52.30;;;;;;4990887;28;20441;-84
2023/07/15 05:35:04;;;;;;;2.30;2.10;;;32.50;52.40;;;;;;4974565;28;20038;-83
2023/07/15 05:37:30;;;;;;;2.60;2.20;;;31.90;53.00;;;;;;4974547;28;20482;-83
2023/07/15 05:39:56;;;;;;;2.13;1.98;;;31.20;53.70;;;;;;4991003;28;20038;-84
2023/07/15 05:42:21;;;;;;;2.40;2.20;;;30.60;54.50;;;;;;4991339;28;20172;-83
2023/07/15 05:44:47;;;;;;;2.47;2.38;;;30.00;55.10;;;;;;4995998;28;20023;-84
2023/07/15 05:47:13;;;;;;;3.03;2.58;;;29.60;55.70;;;;;;4994677;28;20444;-84
2023/07/15 05:49:38;;;;;;;2.47;2.30;;;29.10;56.20;;;;;;4978630;28;20030;-84
2023/07/15 05:52:05;;;;;;;3.08;2.75;;;28.70;56.70;;;;;;4995938;28;20053;-83
2023/07/15 05:54:30;;;;;;;2.47;2.28;;;28.30;57.30;;;;;;4996023;28;20033;-83
2023/07/15 05:56:56;;;;;;;3.72;2.42;;;28.00;57.80;;;;;;4996013;28;20038;-84
2023/07/15 05:59:22;;;;;;;3.25;2.67;;;27.80;58.10;;;;;;4994584;28;20030;-84
2023/07/15 06:01:48;;;;;;;2.72;2.40;;;27.60;58.80;;;;;;4995853;28;20034;-84
2023/07/15 06:04:14;;;;;;;3.13;2.83;;;27.40;59.60;;;;;;4994373;28;20498;-83
2023/07/15 06:06:39;;;;;;;2.60;2.40;;;27.20;59.70;;;;;;4995981;28;20035;-83
2023/07/15 06:09:05;;;;;;;2.72;2.53;;;27.10;59.90;;;;;;4978247;28;20034;-83
2023/07/15 06:11:31;;;;;;;2.83;2.58;;;27.00;60.30;;;;;;4977969;28;20034;-83
2023/07/15 06:14:00;;;;;;;3.00;2.72;;;26.90;60.60;;;;;;4977653;28;20070;-84
2023/07/15 06:16:26;;;;;;;3.72;2.80;;;26.80;60.70;;;;;;4993913;28;20483;-83
2023/07/15 06:18:52;;;;;;;2.70;2.50;;;26.70;61.00;;;;;;4995333;28;20077;-83
2023/07/15 06:21:18;;;;;;;3.28;2.63;;;26.60;61.20;;;;;;4978016;28;20022;-83
2023/07/15 06:23:43;;;;;;;3.22;2.30;;;26.60;61.60;;;;;;4977880;28;20034;-83
2023/07/15 06:26:09;;;;;;;2.70;2.50;;;26.50;61.80;;;;;;4994153;28;20035;-83
2023/07/15 06:28:35;;;;;;;2.60;2.40;;;26.40;61.90;;;;;;4995185;28;20035;-83
2023/07/15 06:31:06;;;;;;;2.92;2.55;;;26.40;62.10;;;;;;4995008;28;20060;-84
2023/07/15 06:33:34;;;;;;;3.05;2.80;;;26.40;62.40;;;;;;4993585;28;20069;-83
2023/07/15 06:36:00;;;;;;;2.60;2.40;;;26.30;62.50;;;;;;4995152;28;20053;-83
2023/07/15 06:38:27;;;;;;;2.67;2.47;;;26.30;62.60;;;;;;4993961;28;20022;-84
2023/07/15 06:40:56;;;;;;;2.53;2.33;;;26.30;62.80;;;;;;4995096;28;20021;-83
2023/07/15 06:43:22;;;;;;;4.55;2.88;;;26.30;62.80;;;;;;4995004;28;20045;-83
2023/07/15 06:45:48;;;;;;;3.03;2.72;;;26.20;62.90;;;;;;4995181;28;20030;-84
2023/07/15 06:48:13;;;;;;;4.75;2.90;;;26.20;63.00;;;;;;4993704;28;20061;-83
2023/07/15 06:50:40;;;;;;;3.03;2.72;;;26.20;63.10;;;;;;4993578;28;20034;-83
2023/07/15 06:53:06;;;;;;;3.58;2.60;;;26.10;63.20;;;;;;4993339;28;20036;-84
2023/07/15 06:55:32;;;;;;;2.70;2.50;;;26.10;63.50;;;;;;4993509;28;20117;-83
2023/07/15 06:57:57;;;;;;;2.90;2.60;;;26.10;63.60;;;;;;4993248;28;20489;-83
2023/07/15 07:00:24;;;;;;;3.50;2.78;;;26.10;63.70;;;;;;4994555;28;20062;-83
2023/07/15 07:02:50;;;;;;;2.90;2.55;;;26.10;63.80;;;;;;4994597;28;20088;-83
2023/07/15 07:05:16;;;;;;;2.88;2.50;;;26.10;63.80;;;;;;4994598;28;20109;-84
2023/07/15 07:07:42;;;;;;;2.78;2.53;;;26.10;64.00;;;;;;4993239;28;20075;-83
2023/07/15 07:10:08;;;;;;;2.45;2.25;;;26.10;64.10;;;;;;4994272;28;20037;-84
2023/07/15 07:12:34;;;;;;;3.42;2.80;;;26.10;64.20;;;;;;4994274;28;20038;-83
2023/07/15 07:15:00;;;;;;;3.38;2.60;;;26.20;64.40;;;;;;4994466;28;20109;-84
2023/07/15 07:17:25;;;;;;;2.50;2.30;;;26.20;64.40;;;;;;4993015;28;20173;-83
2023/07/15 07:19:51;;;;;;;3.17;2.83;;;26.20;64.60;;;;;;4993530;28;20238;-83
2023/07/15 07:22:17;;;;;;;2.80;2.60;;;26.10;64.40;;;;;;4993212;28;20026;-83
2023/07/15 07:24:45;;;;;;;2.83;2.63;;;26.20;64.30;;;;;;4993708;28;20029;-83
2023/07/15 07:27:12;;;;;;;2.75;2.50;;;26.20;64.50;;;;;;4994002;28;20022;-84
2023/07/15 07:29:37;;;;;;;2.65;2.42;;;26.20;64.70;;;;;;4992796;28;20133;-84
2023/07/15 07:32:04;;;;;;;5.80;2.70;;;26.20;64.80;;;;;;4992660;28;20113;-83
2023/07/15 07:34:30;;;;;;;3.05;2.60;;;26.20;64.70;;;;;;4992705;28;20073;-83
2023/07/15 07:36:55;;;;;;;2.83;2.60;;;26.20;64.70;;;;;;4993740;28;20426;-84
2023/07/15 07:39:21;;;;;;;2.65;2.40;;;26.20;64.70;;;;;;4990962;28;20053;-84
2023/07/15 07:41:47;;;;;;;3.35;2.72;;;26.20;64.70;;;;;;4991031;28;20058;-83
2023/07/15 07:44:13;;;;;;;4.82;2.50;;;26.20;64.60;;;;;;4993190;28;20035;-83
2023/07/15 07:46:38;;;;;;;2.65;2.45;;;26.20;64.60;;;;;;4993404;28;20073;-84
2023/07/15 07:49:04;;;;;;;3.20;2.90;;;26.20;64.80;;;;;;4976004;28;20066;-84
2023/07/15 07:51:30;;;;;;;4.15;2.67;;;26.20;64.70;;;;;;4992106;28;20541;-83
2023/07/15 07:53:55;;;;;;;3.75;2.50;;;26.30;64.80;;;;;;4993490;28;20109;-83
2023/07/15 07:56:23;;;;;;;2.80;2.58;;;26.20;64.80;;;;;;4976049;28;20189;-83
2023/07/15 07:58:54;;;;;;;2.45;2.25;;;26.20;64.80;;;;;;4992489;28;20478;-83
2023/07/15 08:01:21;;;;;;;2.60;2.40;;;26.20;64.70;;;;;;4992454;28;20089;-84
2023/07/15 08:03:46;;;;;;;2.70;2.50;;;26.20;64.70;;;;;;4992976;28;20061;-83
2023/07/15 08:06:12;;;;;;;3.08;2.58;;;26.20;64.80;;;;;;4992284;28;20062;-83
2023/07/15 08:08:38;;;;;;;2.65;2.40;;;26.20;64.40;;;;;;4976045;28;20027;-84
2023/07/15 08:11:03;;;;;;;3.55;2.25;;;26.20;64.30;;;;;;4975851;28;20037;-84
2023/07/15 08:13:29;;;;;;;2.70;2.25;;;26.20;64.30;;;;;;4975692;28;20023;-84
2023/07/15 08:15:55;;;;;;;2.95;2.65;;;26.20;64.30;;;;;;4991791;28;20019;-83
2023/07/15 08:18:20;;;;;;;3.72;2.50;;;26.20;64.10;;;;;;4993164;28;20117;-83
2023/07/15 08:20:47;;;;;;;2.35;2.17;;;26.20;64.10;;;;;;4991625;28;20018;-84
2023/07/15 08:23:13;;;;;;;3.03;2.75;;;26.20;64.20;;;;;;4993152;28;20026;-83
2023/07/15 08:25:38;;;;;;;2.60;2.40;;;26.20;64.30;;;;;;4992924;28;20080;-83
2023/07/15 08:28:04;;;;;;;2.40;2.20;;;26.20;64.20;;;;;;4993123;28;20105;-83
2023/07/15 08:30:30;;;;;;;2.78;2.28;;;26.20;64.20;;;;;;4991506;28;20042;-84
2023/07/15 08:32:56;;;;;;;3.65;2.65;;;26.20;64.00;;;;;;4991652;28;20387;-83
2023/07/15 08:35:21;;;;;;;3.63;2.50;;;26.20;64.00;;;;;;4991583;28;20034;-84
2023/07/15 08:37:47;;;;;;;2.92;2.63;;;26.20;63.70;;;;;;4971477;28;20026;-84
2023/07/15 08:40:14;;;;;;;2.10;2.00;;;26.10;63.80;;;;;;4985033;28;20031;-83
2023/07/15 08:42:40;;;;;;;2.88;2.53;;;26.10;63.70;;;;;;4992505;28;20496;-84
2023/07/15 08:45:06;;;;;;;3.90;2.30;;;26.10;63.50;;;;;;4991450;28;20034;-84
2023/07/15 08:47:32;;;;;;;2.60;2.40;;;26.10;63.40;;;;;;4991276;28;20576;-83
2023/07/15 08:50:02;;;;;;;2.70;2.40;;;26.10;63.40;;;;;;4992446;28;20022;-84
2023/07/15 08:52:29;;;;;;;2.72;2.53;;;26.10;63.50;;;;;;4990299;28;20026;-83
2023/07/15 08:54:55;;;;;;;3.95;2.45;;;26.00;63.50;;;;;;4991462;28;20030;-83
2023/07/15 08:57:22;;;;;;;2.30;2.20;;;26.00;63.50;;;;;;4990753;28;20095;-83
2023/07/15 08:59:56;;;;;;;3.03;2.45;;;26.00;63.70;;;;;;4992073;28;20045;-84
2023/07/15 09:02:22;;;;;;;2.25;2.05;;;25.90;63.30;;;;;;4992095;28;20033;-84
2023/07/15 09:04:48;;;;;;;2.50;2.30;;;25.80;63.30;;;;;;4990744;28;20022;-84
2023/07/15 09:07:13;;;;;;;2.10;1.80;;;25.80;63.00;;;;;;4990978;28;20426;-83
2023/07/15 09:09:39;;;;;;;2.40;2.00;;;25.80;62.80;;;;;;4992165;28;20030;-83
2023/07/15 09:12:11;;;;;;;2.88;2.50;;;25.80;62.80;;;;;;4974365;28;20033;-83
2023/07/15 09:14:41;;;;;;;2.38;2.17;;;25.80;62.60;;;;;;4990714;28;20022;-83
2023/07/15 09:17:07;;;;;;;2.10;2.00;;;25.70;62.70;;;;;;4991190;28;20014;-83
2023/07/15 09:19:34;;;;;;;2.67;2.20;;;25.70;62.50;;;;;;4992160;28;20022;-84
2023/07/15 09:22:08;;;;;;;2.42;1.80;;;25.70;62.40;;;;;;4991437;28;20045;-82
2023/07/15 09:24:37;;;;;;;2.90;2.28;;;25.60;62.40;;;;;;4992029;28;20072;-83
2023/07/15 09:27:03;;;;;;;3.33;2.25;;;25.60;62.10;;;;;;4992152;28;20040;-83
2023/07/15 09:29:29;;;;;;;2.10;1.90;;;25.60;61.90;;;;;;4990541;28;20050;-83
2023/07/15 09:31:55;;;;;;;2.13;2.00;;;25.60;61.80;;;;;;4990734;28;20061;-84
2023/07/15 09:34:22;;;;;;;2.13;1.63;;;25.60;61.70;;;;;;4990759;28;20033;-84
2023/07/15 09:36:48;;;;;;;3.10;1.90;;;25.60;61.40;;;;;;4992070;28;20095;-83
2023/07/15 09:39:19;;;;;;;1.92;1.83;;;25.50;61.30;;;;;;4991771;28;20109;-83
2023/07/15 09:42:02;;;;;;;2.85;1.75;;;25.50;60.90;;;;;;4992020;28;20022;-83
2023/07/15 09:44:43;;;;;;;1.90;1.80;;;25.50;60.90;;;;;;4990881;28;20118;-83
2023/07/15 09:47:08;;;;;;;2.28;2.00;;;25.50;60.80;;;;;;4991940;28;20022;-83
2023/07/15 09:49:35;;;;;;;3.75;2.00;;;25.50;60.70;;;;;;4974478;28;20081;-83
2023/07/15 09:52:04;;;;;;;2.20;2.10;;;25.50;60.60;;;;;;4990523;28;20026;-83
2023/07/15 09:54:32;;;;;;;1.88;1.70;;;25.50;60.50;;;;;;4990676;28;20030;-83
2023/07/15 09:57:14;;;;;;;2.25;2.03;;;25.50;60.10;;;;;;4990434;28;20022;-83
2023/07/15 09:59:47;;;;;;;1.90;1.80;;;25.40;60.00;;;;;;4992058;28;20094;-83
2023/07/15 10:02:35;;;;;;;2.10;1.70;;;25.40;60.00;;;;;;4990385;28;20359;-83
2023/07/15 10:05:05;;;;;;;1.80;1.70;;;25.40;59.90;;;;;;4989409;28;20513;-83
2023/07/15 10:07:31;;;;;;;2.63;1.80;;;25.40;60.30;;;;;;4990017;28;20371;-83
2023/07/15 10:09:59;;;;;;;1.63;1.52;;;25.40;60.40;;;;;;4988952;28;20318;-83
2023/07/15 10:12:29;;;;;;;1.48;1.38;;;25.40;60.50;;;;;;4991091;28;20061;-83
2023/07/15 10:14:57;;;;;;;1.92;1.80;;;25.40;60.40;;;;;;4990041;28;20109;-83
2023/07/15 10:17:22;;;;;;;1.88;1.73;;;25.40;60.60;;;;;;4991292;28;20038;-83
2023/07/15 10:19:49;;;;;;;1.67;1.58;;;25.30;60.50;;;;;;4990222;28;20039;-83
2023/07/15 10:22:21;;;;;;;3.53;2.10;;;25.30;60.50;;;;;;4991776;28;20022;-83
2023/07/15 10:24:57;;;;;;;2.58;1.85;;;25.30;60.30;;;;;;4990302;28;20375;-83
2023/07/15 10:27:27;;;;;;;2.38;1.90;;;25.30;60.10;;;;;;4990380;28;20034;-83
2023/07/15 10:30:14;;;;;;;1.77;1.67;;;25.30;60.90;;;;;;4993219;28;20406;-83
2023/07/15 10:33:00;;;;;;;1.58;1.48;;;25.30;60.10;;;;;;4977513;28;20403;-82
2023/07/15 10:35:51;;;;;;;2.30;1.90;;;25.30;59.70;;;;;;4957988;28;20039;-83
2023/07/15 10:38:31;;;;;;;1.95;1.85;;;25.20;59.80;;;;;;4979946;28;20570;-84
2023/07/15 10:41:02;;;;;;;1.70;1.60;;;25.20;59.80;;;;;;4994916;28;20099;-83
2023/07/15 10:43:34;;;;;;;1.98;1.83;;;25.20;60.00;;;;;;4993633;28;20038;-83
2023/07/15 10:46:02;;;;;;;1.67;1.58;;;25.20;60.20;;;;;;4995016;28;20390;-83
2023/07/15 10:48:28;;;;;;;2.42;2.20;;;25.20;59.80;;;;;;4994812;28;20494;-83
2023/07/15 10:50:57;;;;;;;2.08;1.90;;;25.20;59.90;;;;;;4994851;28;20041;-82
2023/07/15 10:53:29;;;;;;;1.73;1.63;;;25.20;60.10;;;;;;4993437;28;20077;-83
2023/07/15 10:56:11;;;;;;;1.80;1.70;;;25.20;60.10;;;;;;4994624;28;20018;-84
2023/07/15 10:58:37;;;;;;;2.08;1.88;;;25.20;59.70;;;;;;4995013;28;20484;-83
2023/07/15 11:01:07;;;;;;;2.00;1.90;;;25.20;59.60;;;;;;4994730;28;20032;-83
2023/07/15 11:03:39;;;;;;;1.83;1.73;;;25.20;59.60;;;;;;4993283;28;20033;-83
2023/07/15 11:06:05;;;;;;;3.88;1.85;;;25.20;59.50;;;;;;4992686;28;20045;-83
2023/07/15 11:08:32;;;;;;;1.80;1.70;;;25.20;59.40;;;;;;4991724;28;20026;-83
2023/07/15 11:10:58;;;;;;;1.88;1.77;;;25.20;59.50;;;;;;4993052;28;20026;-83
2023/07/15 11:13:24;;;;;;;1.92;1.83;;;25.20;59.70;;;;;;4992037;28;20026;-83
2023/07/15 11:15:50;;;;;;;1.80;1.70;;;25.20;59.60;;;;;;4991344;28;20109;-83
2023/07/15 11:18:17;;;;;;;1.73;1.63;;;25.20;59.50;;;;;;4991825;28;20386;-83
2023/07/15 11:20:45;;;;;;;3.65;1.80;;;25.20;59.50;;;;;;4993696;28;20022;-83
2023/07/15 11:23:11;;;;;;;2.17;1.98;;;25.30;59.70;;;;;;4992984;28;20065;-83
2023/07/15 11:25:37;;;;;;;3.83;2.00;;;25.30;59.80;;;;;;4993024;28;20050;-83
2023/07/15 11:28:04;;;;;;;3.75;2.30;;;25.30;59.70;;;;;;4974048;28;20027;-84
2023/07/15 11:30:48;;;;;;;1.85;1.73;;;25.30;59.40;;;;;;4990466;28;20141;-83
2023/07/15 11:33:15;;;;;;;2.30;2.10;;;25.30;59.50;;;;;;4993202;28;20031;-83
2023/07/15 11:35:42;;;;;;;2.47;2.10;;;25.30;59.20;;;;;;4991469;28;20122;-82
2023/07/15 11:38:10;;;;;;;2.53;2.20;;;25.30;59.10;;;;;;4991960;28;20029;-83
2023/07/15 11:40:37;;;;;;;2.20;2.05;;;25.30;59.30;;;;;;4990750;28;20069;-83
2023/07/15 11:43:06;;;;;;;2.20;2.00;;;25.30;59.40;;;;;;4991789;28;20023;-83
2023/07/15 11:45:32;;;;;;;2.20;2.00;;;25.30;59.50;;;;;;4974297;28;20778;-84
2023/07/15 11:47:58;;;;;;;2.67;2.28;;;25.30;59.70;;;;;;4992042;28;20414;-83
2023/07/15 11:50:26;;;;;;;2.88;2.20;;;25.30;59.80;;;;;;4990577;28;20034;-83
2023/07/15 11:52:52;;;;;;;2.40;2.20;;;25.30;59.60;;;;;;4974694;28;20423;-83
2023/07/15 11:55:27;;;;;;;1.90;1.80;;;25.30;59.60;;;;;;4993577;28;20153;-83
2023/07/15 11:57:53;;;;;;;2.30;2.08;;;25.30;59.80;;;;;;4992228;28;20050;-83
2023/07/15 12:00:30;;;;;;;3.42;2.35;;;25.30;60.20;;;;;;4976288;28;20038;-83
2023/07/15 12:02:56;;;;;;;2.10;1.88;;;25.30;59.80;;;;;;4993598;28;20038;-83
2023/07/15 12:05:22;;;;;;;2.40;2.20;;;25.30;59.70;;;;;;4993172;28;20494;-83
2023/07/15 12:07:50;;;;;;;2.08;1.95;;;25.30;59.70;;;;;;4992083;28;20088;-84
2023/07/15 12:10:18;;;;;;;2.55;2.35;;;25.30;59.70;;;;;;4993363;28;20022;-83
2023/07/15 12:12:45;;;;;;;2.20;2.10;;;25.30;59.70;;;;;;4993436;28;20085;-83
2023/07/15 12:15:17;;;;;;;2.22;2.10;;;25.30;59.70;;;;;;4991956;28;20521;-83
2023/07/15 12:17:44;;;;;;;1.98;1.75;;;25.30;59.60;;;;;;4991950;28;20033;-83
2023/07/15 12:20:13;;;;;;;2.22;1.95;;;25.30;59.50;;;;;;4992264;28;20113;-83
2023/07/15 12:22:39;;;;;;;2.30;2.10;;;25.30;59.30;;;;;;4991968;28;20394;-83
2023/07/15 12:25:06;;;;;;;2.10;1.88;;;25.20;59.30;;;;;;4991789;28;20494;-83
2023/07/15 12:27:32;;;;;;;2.75;2.20;;;25.20;59.40;;;;;;4991599;28;20498;-83
2023/07/15 12:29:58;;;;;;;2.40;2.20;;;25.20;59.40;;;;;;4992834;28;20078;-83
2023/07/15 12:32:25;;;;;;;2.13;2.00;;;25.30;59.70;;;;;;4992889;28;20104;-83
2023/07/15 12:34:51;;;;;;;2.38;2.05;;;25.30;59.80;;;;;;4991521;28;20030;-83
2023/07/15 12:37:18;;;;;;;2.05;1.95;;;25.30;60.10;;;;;;4991670;28;20125;-83
2023/07/15 12:39:43;;;;;;;1.90;1.80;;;25.30;60.00;;;;;;4991539;28;20085;-83
2023/07/15 12:42:09;;;;;;;2.35;2.00;;;25.30;59.90;;;;;;4992856;28;20479;-83
2023/07/15 12:44:35;;;;;;;2.15;1.95;;;25.20;59.80;;;;;;4991418;28;20035;-83
2023/07/15 12:47:00;;;;;;;2.40;2.20;;;25.30;59.90;;;;;;4991399;28;20026;-84
2023/07/15 12:49:26;;;;;;;2.30;2.10;;;25.30;59.80;;;;;;4991012;28;20026;-83